Time;durP1;ratioP1;P1;durP2;ratioP2;P2;SDS_P1;SDS_P2;PMS_P1;PMS_P2;Temp;Humidity;BMP_temperature;BMP_pressure;BME280_temperature;BME280_humidity;BME280_pressure;Samples;Min_cycle;Max_cycle;Signal;HPM_P1;HPM_P2
2022/07/15 00:00:23;;;;;;;10.32;3.65;;;12.50;99.90;;;;;;4949347;29;20047;-69
2022/07/15 00:02:49;;;;;;;7.28;3.55;;;12.50;99.90;;;;;;4939667;29;20186;-69
2022/07/15 00:05:15;;;;;;;8.48;3.78;;;12.40;99.90;;;;;;4935412;29;20039;-68
2022/07/15 00:07:40;;;;;;;8.85;3.95;;;12.30;99.90;;;;;;4945338;29;20113;-68
2022/07/15 00:10:16;;;;;;;8.50;4.30;;;12.30;99.90;;;;;;4954028;29;20541;-68
2022/07/15 00:12:53;;;;;;;9.27;4.13;;;12.30;99.90;;;;;;4924652;29;20054;-68
2022/07/15 00:15:22;;;;;;;14.95;4.40;;;12.30;99.90;;;;;;4949237;29;20039;-69
2022/07/15 00:17:48;;;;;;;13.30;4.40;;;12.30;99.90;;;;;;4936051;29;20047;-68
2022/07/15 00:20:14;;;;;;;10.80;3.90;;;12.20;99.90;;;;;;4944518;29;20574;-68
2022/07/15 00:22:40;;;;;;;6.90;4.10;;;12.20;99.90;;;;;;4949636;29;20039;-67
2022/07/15 00:25:07;;;;;;;8.85;4.20;;;12.20;99.90;;;;;;4936382;29;20054;-69
2022/07/15 00:27:32;;;;;;;10.35;4.10;;;12.10;99.90;;;;;;4953556;29;20035;-69
2022/07/15 00:29:58;;;;;;;10.32;4.22;;;12.00;99.90;;;;;;4946910;29;20038;-67
2022/07/15 00:32:23;;;;;;;10.60;4.72;;;12.10;99.90;;;;;;4924131;29;20039;-68
2022/07/15 00:34:51;;;;;;;9.50;4.10;;;12.00;99.90;;;;;;4934211;29;20043;-67
2022/07/15 00:37:17;;;;;;;9.85;4.07;;;12.10;99.90;;;;;;4933651;29;20040;-67
2022/07/15 00:39:43;;;;;;;8.35;4.30;;;12.00;99.90;;;;;;4951286;29;20039;-69
2022/07/15 00:42:43;;;;;;;9.65;4.07;;;12.00;99.90;;;;;;4935669;29;20051;-68
2022/07/15 00:44:57;;;;;;;7.28;4.30;;;11.80;99.90;;;;;;4927761;29;20046;-69
2022/07/15 00:47:23;;;;;;;9.05;4.20;;;11.70;99.90;;;;;;4951354;29;20043;-69
2022/07/15 00:49:49;;;;;;;8.50;3.83;;;11.60;99.90;;;;;;4935529;29;20046;-69
2022/07/15 00:52:16;;;;;;;9.13;4.32;;;11.50;99.90;;;;;;4936079;29;20043;-68
2022/07/15 00:54:44;;;;;;;7.45;4.10;;;11.40;99.90;;;;;;4927742;29;20051;-69
2022/07/15 00:57:10;;;;;;;9.55;4.40;;;11.50;99.90;;;;;;4956804;29;20500;-69
2022/07/15 00:59:37;;;;;;;12.80;4.57;;;11.60;99.90;;;;;;4956941;29;20071;-68
2022/07/15 01:27:57;;;;;;;8.02;4.13;;;12.30;99.90;;;;;;5675744;23;20506;-67
2022/07/15 01:49:45;;;;;;;8.52;3.65;;;12.50;99.90;;;;;;5349936;23;20051;-66
2022/07/15 01:52:10;;;;;;;12.45;4.00;;;12.60;99.90;;;;;;4947792;29;20044;-66
2022/07/15 02:28:16;;;;;;;9.85;3.60;;;13.00;99.90;;;;;;5162159;23;20054;-66
2022/07/15 02:30:43;;;;;;;9.23;3.25;;;13.00;99.90;;;;;;4938187;29;20048;-66
2022/07/15 02:35:54;;;;;;;13.27;3.15;;;12.90;99.90;;;;;;5571661;23;20067;-67
2022/07/15 02:38:21;;;;;;;9.57;3.03;;;12.90;99.90;;;;;;5008724;28;20029;-67
2022/07/15 02:40:46;;;;;;;9.50;3.40;;;12.90;99.90;;;;;;4987835;28;20046;-66
2022/07/15 03:06:31;;;;;;;7.00;3.13;;;12.50;99.90;;;;;;5736110;23;20125;-66
2022/07/15 03:16:42;;;;;;;9.80;3.20;;;12.30;99.90;;;;;;5732439;23;20058;-66
2022/07/15 03:19:08;;;;;;;12.73;3.72;;;12.20;99.90;;;;;;4936633;29;20058;-66
2022/07/15 03:21:34;;;;;;;12.68;3.55;;;12.20;99.90;;;;;;4933269;29;20046;-66
2022/07/15 03:37:17;;;;;;;11.90;3.67;;;12.00;99.90;;;;;;5443220;23;20039;-67
2022/07/15 03:39:44;;;;;;;9.10;3.22;;;12.00;99.90;;;;;;4936300;28;20039;-66
2022/07/15 04:09:40;;;;;;;5.45;2.90;;;12.00;99.90;;;;;;5350629;23;20512;-66
2022/07/15 04:25:03;;;;;;;11.27;3.35;;;12.10;99.90;;;;;;4161102;23;20046;-66
2022/07/15 04:27:28;;;;;;;9.07;3.47;;;12.10;99.90;;;;;;4971917;28;20038;-66
2022/07/15 04:32:29;;;;;;;10.45;3.45;;;12.20;99.90;;;;;;5643205;23;20076;-67
2022/07/15 05:22:01;;;;;;;8.70;3.40;;;13.10;99.90;;;;;;5437411;23;20046;-66
2022/07/15 05:24:27;;;;;;;12.77;3.65;;;13.20;99.90;;;;;;4968145;28;20054;-66
2022/07/15 05:26:53;;;;;;;5.88;3.20;;;13.30;99.90;;;;;;4967812;28;20421;-66
2022/07/15 05:29:21;;;;;;;9.07;3.38;;;13.40;99.90;;;;;;4976543;28;20042;-65
2022/07/15 05:31:48;;;;;;;6.30;3.13;;;13.60;99.90;;;;;;4963026;28;20051;-67
2022/07/15 05:34:14;;;;;;;5.82;2.78;;;13.70;99.90;;;;;;4949698;29;20403;-66
2022/07/15 05:36:40;;;;;;;7.95;2.95;;;13.90;99.90;;;;;;4947586;28;20043;-64
2022/07/15 06:05:15;;;;;;;4.47;2.05;;;14.70;99.90;;;;;;5010560;23;20051;-67
2022/07/15 06:15:27;;;;;;;9.93;2.05;;;14.80;99.90;;;;;;5010350;23;20203;-67
2022/07/15 06:17:53;;;;;;;3.33;1.60;;;14.80;99.90;;;;;;4946674;29;20059;-67
2022/07/15 06:20:19;;;;;;;9.10;2.90;;;14.80;99.90;;;;;;4949042;29;20063;-67
2022/07/15 06:51:14;;;;;;;5.63;1.58;;;14.80;99.90;;;;;;5683779;23;20055;-67
2022/07/15 07:33:37;;;;;;;3.03;1.00;;;16.20;99.90;;;;;;5728633;23;20047;-68
2022/07/15 07:36:05;;;;;;;6.68;1.35;;;16.20;99.90;;;;;;4948199;29;20090;-67
2022/07/15 07:38:31;;;;;;;1.38;1.02;;;16.30;99.90;;;;;;4948783;29;20058;-67
2022/07/15 07:40:57;;;;;;;2.42;1.15;;;16.40;99.90;;;;;;4953262;29;20126;-67
2022/07/15 07:43:23;;;;;;;4.18;1.27;;;16.50;99.90;;;;;;4944513;28;20134;-67
2022/07/15 07:45:50;;;;;;;4.50;0.90;;;16.70;99.90;;;;;;4932569;29;20114;-67
2022/07/15 07:56:03;;;;;;;2.80;1.00;;;16.70;99.90;;;;;;5389978;23;20515;-67
2022/07/15 08:14:25;;;;;;;0.77;0.65;;;17.60;99.90;;;;;;5035730;23;20438;-66
2022/07/15 08:42:46;;;;;;;1.08;0.70;;;18.40;99.90;;;;;;5460562;23;20111;-68
2022/07/15 08:45:13;;;;;;;2.75;0.63;;;18.70;99.90;;;;;;4911018;29;20563;-68
2022/07/15 08:47:42;;;;;;;2.40;0.80;;;18.70;99.90;;;;;;4933058;29;20043;-67
2022/07/15 09:18:41;;;;;;;1.95;0.65;;;19.10;99.90;;;;;;5119285;23;20058;-67
2022/07/15 09:21:20;;;;;;;4.75;0.85;;;19.40;99.90;;;;;;4978161;28;20035;-68
2022/07/15 09:41:53;;;;;;;0.93;0.60;;;18.40;99.90;;;;;;5052866;23;20047;-65
2022/07/15 09:44:20;;;;;;;1.75;0.70;;;18.60;99.90;;;;;;4962899;28;20047;-66
2022/07/15 09:46:53;;;;;;;0.95;0.60;;;18.80;99.40;;;;;;4973585;28;20667;-66
2022/07/15 10:15:49;;;;;;;2.95;0.82;;;19.90;97.30;;;;;;4993100;23;20055;-66
2022/07/15 10:18:17;;;;;;;0.75;0.50;;;19.80;94.90;;;;;;4940458;29;20031;-66
2022/07/15 10:21:21;;;;;;;2.33;0.80;;;19.90;97.50;;;;;;4951743;28;20047;-63
2022/07/15 10:34:11;;;;;;;2.25;0.70;;;20.70;96.90;;;;;;5864233;23;20065;-65
2022/07/15 10:36:45;;;;;;;2.53;0.90;;;20.90;96.60;;;;;;4949311;29;20086;-65
2022/07/15 10:39:12;;;;;;;1.98;0.68;;;21.10;95.50;;;;;;4932462;29;20097;-66
2022/07/15 10:47:14;;;;;;;1.17;0.73;;;21.20;94.80;;;;;;6033532;23;20006;-66
2022/07/15 10:58:47;;;;;;;1.60;0.93;;;20.40;94.50;;;;;;6072737;23;20039;-66
2022/07/15 11:01:26;;;;;;;1.52;0.90;;;20.00;94.60;;;;;;4892411;29;20063;-66
2022/07/15 11:04:10;;;;;;;2.13;0.75;;;19.80;94.60;;;;;;5480057;23;20060;-65
2022/07/15 11:16:59;;;;;;;1.25;0.85;;;19.90;95.80;;;;;;5441512;23;20597;-67
2022/07/15 11:19:27;;;;;;;3.47;1.20;;;20.20;96.10;;;;;;4937066;29;20039;-68
2022/07/15 12:08:42;;;;;;;1.85;0.90;;;20.80;95.60;;;;;;5279475;23;20114;-66
2022/07/15 12:11:20;;;;;;;2.15;1.05;;;20.80;94.80;;;;;;4952506;28;20043;-66
2022/07/15 12:13:54;;;;;;;1.48;0.85;;;21.20;93.70;;;;;;4961523;28;20051;-66
2022/07/15 12:16:50;;;;;;;3.60;1.17;;;21.80;92.60;;;;;;4949777;28;20054;-65
2022/07/15 12:19:25;;;;;;;1.63;0.90;;;22.30;92.90;;;;;;4950078;29;20039;-66
2022/07/15 12:48:52;;;;;;;1.10;0.80;;;20.70;94.90;;;;;;5393921;23;20138;-68
2022/07/15 13:02:03;;;;;;;3.15;0.90;;;20.60;93.50;;;;;;5623347;23;20051;-67
2022/07/15 13:04:29;;;;;;;3.63;0.95;;;20.60;93.90;;;;;;4950496;28;20046;-68
2022/07/15 13:06:54;;;;;;;2.22;0.90;;;20.50;93.90;;;;;;4950576;28;20297;-66
2022/07/15 13:12:02;;;;;;;3.15;1.00;;;20.60;94.20;;;;;;5422529;23;20047;-67
2022/07/15 13:17:03;;;;;;;3.08;0.95;;;20.80;93.90;;;;;;5338963;23;20521;-68
2022/07/15 13:24:39;;;;;;;1.65;0.75;;;21.20;93.80;;;;;;5503823;23;20066;-67
2022/07/15 14:11:07;;;;;;;3.08;1.00;;;20.60;94.20;;;;;;5456226;23;20050;-68
2022/07/15 14:13:32;;;;;;;1.83;0.82;;;20.70;94.30;;;;;;4988268;28;20375;-71
2022/07/15 14:15:58;;;;;;;2.38;0.90;;;20.80;94.30;;;;;;4973253;28;20035;-68
2022/07/15 14:28:45;;;;;;;1.83;0.77;;;20.70;94.90;;;;;;5810502;23;20006;-70
2022/07/15 14:31:14;;;;;;;2.80;0.80;;;20.70;94.80;;;;;;4947493;28;20131;-70
2022/07/15 14:33:41;;;;;;;3.13;1.00;;;20.70;94.70;;;;;;4937751;29;20329;-69
2022/07/15 14:36:08;;;;;;;1.70;0.82;;;20.70;95.00;;;;;;4931418;29;20046;-69
2022/07/15 14:38:35;;;;;;;3.70;0.90;;;20.80;94.80;;;;;;4933144;29;20051;-68
2022/07/15 14:41:01;;;;;;;2.25;1.67;;;20.90;95.60;;;;;;4936457;29;20522;-69
2022/07/15 14:43:27;;;;;;;2.85;0.90;;;20.90;95.10;;;;;;4931783;29;20130;-69
2022/07/15 14:45:53;;;;;;;1.85;0.90;;;21.00;94.70;;;;;;4930988;29;20039;-70
2022/07/15 14:48:18;;;;;;;2.88;0.98;;;21.10;94.80;;;;;;4929543;28;20070;-69
2022/07/15 14:50:44;;;;;;;2.50;1.05;;;21.10;95.10;;;;;;4931748;28;20130;-69
2022/07/15 14:53:10;;;;;;;2.45;0.98;;;21.10;94.50;;;;;;4936521;29;20043;-69
2022/07/15 14:55:36;;;;;;;1.50;0.90;;;21.20;94.70;;;;;;4930422;29;20048;-68
2022/07/15 14:58:01;;;;;;;4.50;1.00;;;21.10;94.50;;;;;;4937346;29;20040;-69
2022/07/15 15:00:27;;;;;;;1.85;0.98;;;21.10;94.50;;;;;;4929921;29;20044;-68
2022/07/15 15:02:53;;;;;;;2.67;1.17;;;21.10;95.00;;;;;;4941461;29;20078;-68
2022/07/15 15:10:29;;;;;;;1.58;1.08;;;21.20;94.80;;;;;;5258400;23;20063;-69
2022/07/15 15:15:30;;;;;;;2.17;1.20;;;21.70;94.60;;;;;;5620795;23;20076;-69
2022/07/15 15:17:56;;;;;;;3.00;1.35;;;21.70;94.60;;;;;;4969659;28;20423;-69
2022/07/15 15:20:21;;;;;;;3.63;1.30;;;21.70;94.00;;;;;;4945478;28;20043;-65
2022/07/15 15:22:47;;;;;;;7.20;1.60;;;21.60;93.80;;;;;;5752532;23;21302;-70
2022/07/15 15:25:13;;;;;;;2.90;1.20;;;21.50;94.00;;;;;;4939714;28;20038;-69
2022/07/15 15:34:29;;;;;;;3.60;1.48;;;21.70;94.00;;;;;;5061778;23;20483;-70
2022/07/15 15:40:03;;;;;;;2.65;1.25;;;21.70;92.80;;;;;;5486807;23;20087;-67
2022/07/15 15:42:29;;;;;;;2.65;1.30;;;21.60;93.20;;;;;;4952685;28;20046;-68
2022/07/15 15:44:54;;;;;;;4.82;1.30;;;21.40;93.40;;;;;;5248749;23;20035;-69
2022/07/15 15:47:23;;;;;;;3.20;1.33;;;21.40;93.20;;;;;;4937642;28;20547;-69
2022/07/15 15:49:49;;;;;;;3.35;1.40;;;21.30;93.10;;;;;;4951719;28;20040;-68
2022/07/15 15:52:16;;;;;;;2.80;1.50;;;21.40;93.80;;;;;;4916691;29;20050;-69
2022/07/15 15:54:41;;;;;;;3.50;1.58;;;21.20;93.70;;;;;;4921182;29;20047;-68
2022/07/15 15:59:42;;;;;;;3.72;1.52;;;21.50;93.90;;;;;;5043136;23;20447;-68
2022/07/15 16:02:08;;;;;;;3.28;1.67;;;21.40;93.80;;;;;;4931062;29;20035;-68
2022/07/15 16:04:34;;;;;;;3.03;1.60;;;21.50;93.60;;;;;;4940318;28;20131;-68
2022/07/15 16:07:00;;;;;;;3.17;1.60;;;21.50;93.40;;;;;;4919671;29;20114;-67
2022/07/15 16:09:26;;;;;;;2.55;1.55;;;21.50;94.00;;;;;;4935758;29;20094;-68
2022/07/15 16:37:45;;;;;;;3.78;1.95;;;21.10;94.30;;;;;;5224948;23;20064;-68
2022/07/15 16:42:47;;;;;;;3.60;1.77;;;22.00;93.90;;;;;;5292572;23;20529;-67
2022/07/15 17:15:49;;;;;;;5.18;1.90;;;23.30;90.90;;;;;;5429902;23;20062;-67
2022/07/15 17:27:15;;;;;;;4.88;2.10;;;22.40;91.90;;;;;;5022955;23;20043;-66
2022/07/15 17:29:42;;;;;;;5.15;2.08;;;22.10;92.00;;;;;;4987590;28;20398;-66
2022/07/15 17:32:08;;;;;;;4.75;2.00;;;21.80;92.50;;;;;;4990591;28;20050;-66
2022/07/15 17:34:34;;;;;;;3.50;1.95;;;21.70;92.50;;;;;;4987338;28;20525;-65
2022/07/15 17:36:59;;;;;;;5.00;2.03;;;21.50;93.20;;;;;;4983131;28;20402;-66
2022/07/15 17:39:25;;;;;;;8.02;2.05;;;21.40;93.60;;;;;;4979464;28;20499;-65
2022/07/15 17:41:51;;;;;;;5.63;2.00;;;21.30;93.90;;;;;;4970112;28;20035;-65
2022/07/15 17:44:16;;;;;;;4.63;1.98;;;21.20;94.20;;;;;;4983204;28;20034;-65
2022/07/15 17:46:42;;;;;;;3.42;2.20;;;20.90;94.40;;;;;;4993519;28;20390;-65
2022/07/15 17:49:07;;;;;;;4.38;2.08;;;20.80;94.70;;;;;;4987117;28;20050;-65
2022/07/15 17:51:33;;;;;;;4.53;2.10;;;20.70;95.00;;;;;;4977887;28;20031;-65
2022/07/15 17:53:59;;;;;;;4.82;2.22;;;20.70;95.10;;;;;;4977292;28;20093;-65
2022/07/15 17:56:25;;;;;;;5.90;2.08;;;20.60;95.40;;;;;;4994274;28;20034;-65
2022/07/15 17:58:50;;;;;;;2.33;1.90;;;20.50;95.70;;;;;;4971760;28;20031;-65
2022/07/15 18:01:16;;;;;;;4.63;2.40;;;20.50;95.90;;;;;;4965074;28;20039;-65
2022/07/15 18:03:41;;;;;;;5.43;1.90;;;20.50;96.10;;;;;;4970522;28;20034;-65
2022/07/15 18:06:07;;;;;;;4.63;2.20;;;20.40;96.40;;;;;;4975698;28;20039;-66
2022/07/15 18:08:33;;;;;;;3.58;2.20;;;20.20;96.50;;;;;;4954604;29;20411;-65
2022/07/15 18:10:58;;;;;;;6.22;2.30;;;20.20;96.90;;;;;;4960465;28;20077;-65
2022/07/15 18:13:24;;;;;;;4.35;2.13;;;20.20;97.10;;;;;;4974781;28;20449;-65
2022/07/15 18:15:50;;;;;;;6.03;2.22;;;20.20;97.10;;;;;;4961994;28;20058;-65
2022/07/15 18:18:15;;;;;;;5.80;2.03;;;20.10;97.10;;;;;;4968937;28;20035;-64
2022/07/15 18:20:41;;;;;;;4.82;2.10;;;20.10;97.40;;;;;;4973500;28;20554;-65
2022/07/15 18:23:07;;;;;;;3.17;2.00;;;20.00;97.30;;;;;;4973711;28;20038;-64
2022/07/15 18:25:33;;;;;;;4.72;2.30;;;20.00;97.40;;;;;;4962932;28;20035;-64
2022/07/15 18:27:59;;;;;;;4.00;1.98;;;20.00;97.40;;;;;;4954373;28;20043;-65
2022/07/15 18:30:25;;;;;;;3.00;2.03;;;19.90;97.60;;;;;;4969612;28;20127;-65
2022/07/15 18:32:50;;;;;;;3.60;1.95;;;19.90;97.80;;;;;;4953556;28;20046;-65
2022/07/15 18:35:16;;;;;;;4.15;2.33;;;19.90;98.20;;;;;;4953050;28;20043;-65
2022/07/15 18:37:41;;;;;;;5.03;2.30;;;19.90;98.20;;;;;;4961393;28;20318;-65
2022/07/15 18:40:08;;;;;;;3.53;2.20;;;19.90;98.40;;;;;;4954863;29;20051;-64
2022/07/15 18:42:35;;;;;;;3.58;1.92;;;19.80;98.60;;;;;;4947129;28;20096;-65
2022/07/15 18:45:01;;;;;;;3.83;2.10;;;19.70;98.70;;;;;;4971450;28;20023;-64
2022/07/15 18:47:26;;;;;;;5.47;2.25;;;19.70;98.80;;;;;;4972493;28;20031;-65
2022/07/15 18:49:52;;;;;;;3.30;2.10;;;19.60;98.90;;;;;;4941935;28;20615;-64
2022/07/15 18:52:18;;;;;;;3.90;2.20;;;19.50;99.20;;;;;;4943296;28;20055;-64
2022/07/15 18:54:43;;;;;;;4.18;2.28;;;19.50;99.10;;;;;;4945600;28;20140;-64
2022/07/15 18:57:09;;;;;;;4.63;2.28;;;19.40;99.10;;;;;;4938225;29;20385;-64
2022/07/15 18:59:37;;;;;;;4.15;2.38;;;19.40;99.20;;;;;;4940167;28;20055;-64
2022/07/15 19:02:03;;;;;;;3.10;2.25;;;19.30;99.00;;;;;;4946809;28;20531;-64
2022/07/15 19:04:29;;;;;;;4.88;2.28;;;19.30;99.00;;;;;;4945025;28;20129;-64
2022/07/15 19:06:55;;;;;;;3.72;2.20;;;19.30;99.10;;;;;;4941611;28;20030;-65
2022/07/15 19:09:20;;;;;;;2.80;2.05;;;19.20;99.30;;;;;;4947379;28;20042;-65
2022/07/15 19:11:46;;;;;;;3.67;2.40;;;19.20;99.20;;;;;;4946668;28;20043;-64
2022/07/15 19:14:11;;;;;;;4.05;2.40;;;19.20;99.40;;;;;;4946717;28;20042;-66
2022/07/15 19:16:37;;;;;;;3.65;2.40;;;19.20;99.60;;;;;;4947452;28;20091;-65
2022/07/15 19:19:03;;;;;;;7.30;2.50;;;19.10;99.70;;;;;;4949192;28;20603;-65
2022/07/15 19:21:29;;;;;;;6.22;2.33;;;19.10;99.70;;;;;;4940243;29;20047;-65
2022/07/15 19:23:54;;;;;;;5.65;2.65;;;19.00;99.80;;;;;;4947793;28;20053;-65
2022/07/15 19:26:20;;;;;;;5.53;2.60;;;19.00;99.90;;;;;;4941592;28;20459;-65
2022/07/15 19:28:46;;;;;;;4.50;2.58;;;18.90;99.90;;;;;;4942631;29;20040;-65
2022/07/15 19:31:11;;;;;;;8.00;2.60;;;18.90;99.90;;;;;;4941293;28;20041;-65
2022/07/15 19:33:37;;;;;;;4.70;2.65;;;18.80;99.90;;;;;;4944236;28;20048;-64
2022/07/15 19:36:03;;;;;;;3.72;2.40;;;18.70;99.90;;;;;;4944483;28;20036;-64
2022/07/15 19:38:29;;;;;;;5.72;2.30;;;18.70;99.90;;;;;;4941552;29;20055;-64
2022/07/15 19:40:55;;;;;;;5.68;2.50;;;18.60;99.90;;;;;;4944357;28;20050;-64
2022/07/15 19:43:20;;;;;;;5.28;2.45;;;18.60;99.90;;;;;;4957397;28;20069;-64
2022/07/15 19:45:46;;;;;;;6.78;2.40;;;18.50;99.90;;;;;;4968110;28;20037;-64
2022/07/15 19:48:12;;;;;;;5.40;2.10;;;18.50;99.90;;;;;;4953171;29;20035;-64
2022/07/15 19:50:38;;;;;;;4.63;2.40;;;18.40;99.90;;;;;;4953358;29;20057;-64
2022/07/15 19:53:04;;;;;;;4.78;2.05;;;18.40;99.90;;;;;;4942430;28;20066;-64
2022/07/15 19:55:31;;;;;;;3.78;2.10;;;18.40;99.90;;;;;;4950815;28;20048;-65
2022/07/15 19:57:56;;;;;;;5.70;1.98;;;18.30;99.90;;;;;;4938513;28;20031;-64
2022/07/15 20:00:26;;;;;;;3.72;1.92;;;18.30;99.90;;;;;;4959528;28;20057;-65
2022/07/15 20:02:54;;;;;;;2.22;1.83;;;18.30;99.90;;;;;;4953279;28;20547;-64
2022/07/15 20:05:21;;;;;;;2.85;1.70;;;18.30;99.90;;;;;;4934456;28;20074;-64
2022/07/15 20:07:46;;;;;;;3.97;1.70;;;18.30;99.90;;;;;;4968030;28;20058;-65
2022/07/15 20:10:13;;;;;;;3.60;1.80;;;18.30;99.90;;;;;;4953842;29;20094;-65
2022/07/15 20:12:39;;;;;;;3.80;1.92;;;18.30;99.90;;;;;;4940225;28;20047;-64
2022/07/15 20:15:07;;;;;;;3.78;1.70;;;18.30;99.90;;;;;;4968808;28;20074;-64
2022/07/15 20:17:33;;;;;;;3.38;1.77;;;18.30;99.90;;;;;;4972807;28;20050;-64
2022/07/15 20:19:59;;;;;;;2.85;1.80;;;18.30;99.90;;;;;;4972406;28;20562;-65
2022/07/15 20:22:25;;;;;;;3.42;1.80;;;18.30;99.90;;;;;;4951550;28;20131;-65
2022/07/15 20:24:51;;;;;;;2.60;1.95;;;18.30;99.90;;;;;;4969324;28;20118;-66
2022/07/15 20:27:16;;;;;;;6.05;2.20;;;18.20;99.90;;;;;;4953206;28;20035;-65
2022/07/15 20:29:42;;;;;;;6.07;1.90;;;18.20;99.90;;;;;;4946039;28;20464;-65
2022/07/15 20:32:09;;;;;;;4.03;2.03;;;18.10;99.90;;;;;;4963241;28;20074;-65
2022/07/15 20:34:36;;;;;;;2.97;1.65;;;18.20;99.90;;;;;;4954310;28;20059;-65
2022/07/15 20:37:02;;;;;;;3.40;1.80;;;18.10;99.90;;;;;;4954629;28;20114;-65
2022/07/15 20:39:28;;;;;;;3.00;1.90;;;18.00;99.90;;;;;;4959677;28;20039;-65
2022/07/15 20:41:54;;;;;;;3.38;1.92;;;18.00;99.90;;;;;;4953661;28;20039;-65
2022/07/15 20:44:19;;;;;;;3.60;1.90;;;18.00;99.90;;;;;;4953155;29;20081;-66
2022/07/15 20:46:46;;;;;;;4.53;2.00;;;18.00;99.90;;;;;;4932481;28;20035;-65
2022/07/15 20:49:11;;;;;;;3.30;2.00;;;18.00;99.90;;;;;;4964728;28;20043;-65
2022/07/15 20:51:37;;;;;;;4.53;1.92;;;18.00;99.90;;;;;;4939093;29;20047;-65
2022/07/15 20:54:04;;;;;;;3.10;1.83;;;18.00;99.90;;;;;;4951598;29;20114;-66
2022/07/15 20:56:30;;;;;;;4.95;2.30;;;18.00;99.90;;;;;;4939970;28;20041;-65
2022/07/15 20:58:55;;;;;;;2.85;2.10;;;17.90;99.90;;;;;;4950070;28;20557;-65
2022/07/15 21:01:22;;;;;;;2.60;1.80;;;17.90;99.90;;;;;;4962272;28;20054;-66
2022/07/15 21:03:48;;;;;;;5.90;2.03;;;17.90;99.90;;;;;;4957626;28;20121;-65
2022/07/15 21:06:13;;;;;;;4.40;2.10;;;17.80;99.90;;;;;;4972314;28;20479;-65
2022/07/15 21:08:39;;;;;;;2.70;2.00;;;17.80;99.90;;;;;;4972726;28;20039;-66
2022/07/15 21:11:05;;;;;;;3.45;2.38;;;17.70;99.90;;;;;;4975464;28;20046;-66
2022/07/15 21:13:30;;;;;;;4.28;2.47;;;17.60;99.90;;;;;;4954519;28;20384;-65
2022/07/15 21:15:56;;;;;;;3.58;2.40;;;17.50;99.90;;;;;;4974667;28;20097;-65
2022/07/15 21:18:23;;;;;;;3.80;2.08;;;17.50;99.90;;;;;;4965468;28;20408;-65
2022/07/15 21:20:48;;;;;;;3.00;2.10;;;17.40;99.90;;;;;;4963158;28;20050;-65
2022/07/15 21:23:14;;;;;;;4.57;2.30;;;17.30;99.90;;;;;;4975395;28;20110;-65
2022/07/15 21:28:24;;;;;;;5.03;2.30;;;17.20;99.90;;;;;;4965543;28;20042;-65
2022/07/15 21:30:50;;;;;;;5.18;2.40;;;17.00;99.90;;;;;;4975256;28;20372;-65
2022/07/15 21:33:15;;;;;;;2.75;2.00;;;17.00;99.90;;;;;;4972813;28;20073;-66
2022/07/15 21:35:41;;;;;;;3.20;2.22;;;16.90;99.90;;;;;;4920095;28;20044;-65
2022/07/15 21:38:07;;;;;;;3.25;2.30;;;16.80;99.90;;;;;;4961554;28;20038;-66
2022/07/15 21:40:32;;;;;;;3.35;2.40;;;16.80;99.90;;;;;;4975581;28;20056;-66
2022/07/15 21:42:59;;;;;;;5.05;2.65;;;16.70;99.90;;;;;;4967847;28;23917;-65
2022/07/15 21:45:25;;;;;;;3.45;2.35;;;16.70;99.90;;;;;;4923926;29;20052;-65
2022/07/15 21:47:52;;;;;;;5.00;2.50;;;16.70;99.90;;;;;;4973058;28;20406;-65
2022/07/15 21:50:18;;;;;;;3.90;2.30;;;16.70;99.90;;;;;;4973255;28;20238;-66
2022/07/15 21:52:44;;;;;;;6.22;2.25;;;16.70;99.90;;;;;;4946307;28;20588;-65
2022/07/15 21:55:10;;;;;;;3.17;2.20;;;16.70;99.90;;;;;;4971762;28;20038;-65
2022/07/15 21:57:36;;;;;;;4.68;2.30;;;16.70;99.90;;;;;;4975275;28;20054;-66
2022/07/15 22:00:04;;;;;;;4.18;2.40;;;16.70;99.90;;;;;;4975478;28;20546;-65
2022/07/15 22:02:30;;;;;;;3.15;2.40;;;16.60;99.90;;;;;;4953782;28;20043;-65
2022/07/15 22:04:56;;;;;;;5.07;2.35;;;16.60;99.90;;;;;;4971122;28;20491;-65
2022/07/15 22:07:22;;;;;;;10.27;2.85;;;16.60;99.90;;;;;;4975380;28;20035;-65
2022/07/15 22:09:47;;;;;;;4.55;2.50;;;16.60;99.90;;;;;;4951231;28;20076;-65
2022/07/15 22:12:13;;;;;;;4.18;2.50;;;16.60;99.90;;;;;;4965732;28;20523;-66
2022/07/15 22:14:39;;;;;;;4.47;2.38;;;16.60;99.90;;;;;;4974981;28;20066;-65
2022/07/15 22:17:04;;;;;;;3.90;2.58;;;16.60;99.90;;;;;;4959242;28;20044;-65
2022/07/15 22:19:30;;;;;;;4.82;2.60;;;16.50;99.90;;;;;;4960713;28;20042;-66
2022/07/15 22:21:57;;;;;;;3.75;2.50;;;16.50;99.90;;;;;;4974462;28;20142;-65
2022/07/15 22:24:23;;;;;;;5.35;2.35;;;16.40;99.90;;;;;;4975141;28;20042;-65
2022/07/15 22:26:49;;;;;;;3.50;2.50;;;16.40;99.90;;;;;;4947224;28;20054;-65
2022/07/15 22:29:15;;;;;;;6.35;2.70;;;16.30;99.90;;;;;;4968638;28;20039;-66
2022/07/15 22:31:40;;;;;;;3.90;2.58;;;16.30;99.90;;;;;;4974632;28;20082;-66
2022/07/15 22:34:06;;;;;;;4.93;2.67;;;16.30;99.90;;;;;;4969252;28;20046;-66
2022/07/15 22:36:32;;;;;;;5.43;2.30;;;16.30;99.90;;;;;;4946446;28;20140;-66
2022/07/15 22:38:57;;;;;;;5.30;2.45;;;16.30;99.90;;;;;;4973893;28;20035;-65
2022/07/15 22:41:23;;;;;;;5.07;2.70;;;16.30;99.90;;;;;;4955180;28;20103;-65
2022/07/15 22:43:48;;;;;;;5.47;2.42;;;16.30;99.90;;;;;;4956038;28;20393;-65
2022/07/15 22:46:15;;;;;;;5.75;2.60;;;16.30;99.90;;;;;;4974562;28;20027;-65
2022/07/15 22:48:40;;;;;;;6.85;2.80;;;16.40;99.90;;;;;;4974734;28;20038;-65
2022/07/15 22:51:06;;;;;;;4.72;2.70;;;16.40;99.90;;;;;;4963834;28;20503;-65
2022/07/15 22:53:31;;;;;;;5.38;2.90;;;16.30;99.90;;;;;;4959179;28;20581;-65
2022/07/15 22:55:57;;;;;;;4.20;2.70;;;16.40;99.90;;;;;;4956809;28;20043;-65
2022/07/15 22:58:23;;;;;;;8.18;2.92;;;16.40;99.90;;;;;;4967165;28;20042;-65
2022/07/15 23:00:48;;;;;;;5.45;2.60;;;16.30;99.90;;;;;;4961770;28;20553;-65
2022/07/15 23:03:14;;;;;;;6.22;2.78;;;16.30;99.90;;;;;;4974231;28;20121;-65
2022/07/15 23:05:40;;;;;;;4.00;2.70;;;16.30;99.90;;;;;;4957239;28;20078;-65
2022/07/15 23:08:06;;;;;;;4.93;2.72;;;16.30;99.90;;;;;;4961862;28;20387;-65
2022/07/15 23:10:31;;;;;;;3.65;2.60;;;16.30;99.90;;;;;;4957139;28;20058;-65
2022/07/15 23:12:57;;;;;;;5.93;2.92;;;16.30;99.90;;;;;;4973626;28;20039;-65
2022/07/15 23:15:22;;;;;;;5.35;2.70;;;16.20;99.90;;;;;;4961582;28;20516;-65
2022/07/15 23:17:48;;;;;;;3.65;2.60;;;16.20;99.90;;;;;;4948389;28;20436;-65
2022/07/15 23:20:14;;;;;;;5.22;2.63;;;16.20;99.90;;;;;;4973955;28;20169;-65
2022/07/15 23:22:40;;;;;;;3.58;2.50;;;16.20;99.90;;;;;;4956446;28;20405;-65
2022/07/15 23:25:07;;;;;;;6.82;2.88;;;16.20;99.90;;;;;;4954721;28;20494;-65
2022/07/15 23:27:32;;;;;;;4.25;2.40;;;16.20;99.90;;;;;;4954662;28;20043;-65
2022/07/15 23:29:58;;;;;;;3.60;2.70;;;16.20;99.90;;;;;;4973761;28;20103;-65
2022/07/15 23:32:24;;;;;;;3.63;2.63;;;16.20;99.90;;;;;;4961243;28;20039;-65
2022/07/15 23:34:50;;;;;;;4.25;2.80;;;16.20;99.90;;;;;;4969255;28;20042;-65
2022/07/15 23:37:16;;;;;;;4.20;2.72;;;16.30;99.90;;;;;;4973750;28;20039;-65
2022/07/15 23:39:42;;;;;;;4.72;2.58;;;16.30;99.90;;;;;;4957444;23;20052;-69
2022/07/15 23:42:08;;;;;;;4.43;2.58;;;16.30;99.90;;;;;;4948817;29;20049;-69
2022/07/15 23:44:33;;;;;;;4.75;2.45;;;16.30;99.90;;;;;;4949686;29;20126;-69
2022/07/15 23:54:45;;;;;;;3.20;2.45;;;16.30;99.90;;;;;;5293826;23;20072;-69
2022/07/15 23:57:11;;;;;;;3.80;2.63;;;16.40;99.90;;;;;;4955649;28;20070;-69
